createdAt,value
2022-10-10T00:00:14.397Z,212.25
2022-10-10T00:00:59.730Z,213.17
2022-10-10T00:01:44.617Z,213.17
2022-10-10T00:02:29.639Z,212.73
2022-10-10T00:03:15.008Z,212.73
2022-10-10T00:03:59.689Z,212.25
2022-10-10T00:04:44.606Z,213.17
2022-10-10T00:05:29.558Z,212.73
2022-10-10T00:06:14.702Z,212.25
2022-10-10T00:07:00.015Z,212.25
2022-10-10T00:07:44.476Z,212.25
2022-10-10T00:08:29.715Z,212.25
2022-10-10T00:09:15.269Z,212.25
2022-10-10T00:10:00.305Z,212.25
2022-10-10T00:10:45.166Z,212.25
2022-10-10T00:11:30.116Z,209.87
2022-10-10T00:12:15.172Z,212.25
2022-10-10T00:13:00.948Z,209.87
2022-10-10T00:13:45.492Z,211.72
2022-10-10T00:14:32.584Z,211.72
2022-10-10T00:15:15.456Z,209.87
2022-10-10T00:16:01.074Z,211.72
2022-10-10T00:16:45.462Z,211.72
2022-10-10T00:17:30.568Z,211.72
2022-10-10T00:18:15.525Z,212.25
2022-10-10T00:19:01.089Z,212.73
2022-10-10T00:19:45.967Z,212.73
2022-10-10T00:20:31.025Z,212.73
2022-10-10T00:21:15.909Z,212.73
2022-10-10T00:22:00.903Z,212.73
2022-10-10T00:22:46.195Z,212.25
2022-10-10T00:23:31.266Z,212.25
2022-10-10T00:24:16.187Z,211.72
2022-10-10T00:25:01.243Z,210.54
2022-10-10T00:25:46.295Z,212.73
2022-10-10T00:26:31.244Z,212.73
2022-10-10T00:27:16.314Z,212.25
2022-10-10T00:28:01.557Z,212.73
2022-10-10T00:28:46.447Z,211.72
2022-10-10T00:29:31.477Z,212.25
2022-10-10T00:30:16.528Z,212.25
2022-10-10T00:31:01.387Z,212.73
2022-10-10T00:31:46.743Z,212.25
2022-10-10T00:32:31.587Z,212.25
2022-10-10T00:33:16.750Z,211.72
2022-10-10T00:34:02.420Z,211.72
2022-10-10T00:34:46.653Z,211.72
2022-10-10T00:35:32.023Z,211.72
2022-10-10T00:36:16.987Z,212.25
2022-10-10T00:37:01.928Z,211.72
2022-10-10T00:37:46.885Z,212.25
2022-10-10T00:38:31.838Z,212.25
2022-10-10T00:39:17.428Z,212.25
2022-10-10T00:40:02.191Z,210.54
2022-10-10T00:40:47.211Z,212.73
2022-10-10T00:41:32.064Z,212.25
2022-10-10T00:42:17.120Z,211.72
2022-10-10T00:43:02.486Z,211.72
2022-10-10T00:43:47.228Z,212.25
2022-10-10T00:44:32.501Z,212.25
2022-10-10T00:45:17.453Z,212.73
2022-10-10T00:46:02.421Z,212.73
2022-10-10T00:46:47.265Z,212.73
2022-10-10T00:47:32.515Z,212.25
2022-10-10T00:48:17.648Z,212.25
2022-10-10T00:49:02.896Z,212.25
2022-10-10T00:49:47.896Z,212.25
2022-10-10T00:50:32.635Z,212.73
2022-10-10T00:51:18.065Z,212.25
2022-10-10T00:52:02.764Z,212.25
2022-10-10T00:52:48.034Z,209.87
2022-10-10T00:53:32.898Z,212.25
2022-10-10T00:54:18.446Z,212.25
2022-10-10T00:55:03.183Z,212.73
2022-10-10T00:55:48.546Z,213.17
2022-10-10T00:56:33.318Z,212.25
2022-10-10T00:57:18.359Z,212.25
2022-10-10T00:58:03.559Z,209.87
2022-10-10T00:58:48.589Z,211.72
2022-10-10T00:59:33.541Z,211.72
2022-10-10T01:00:18.680Z,211.72
2022-10-10T01:01:03.564Z,211.72
2022-10-10T01:01:48.692Z,211.72
2022-10-10T01:02:33.746Z,211.72
2022-10-10T01:03:18.599Z,211.72
2022-10-10T01:04:03.879Z,211.72
2022-10-10T01:04:48.914Z,211.72
2022-10-10T01:05:34.074Z,210.54
2022-10-10T01:06:18.923Z,212.25
2022-10-10T01:07:03.910Z,211.72
2022-10-10T01:07:49.090Z,211.72
2022-10-10T01:08:33.902Z,211.72
2022-10-10T01:09:18.844Z,211.72
2022-10-10T01:10:03.926Z,211.72
2022-10-10T01:10:49.264Z,211.72
2022-10-10T01:11:34.111Z,211.72
2022-10-10T01:12:19.173Z,211.72
2022-10-10T01:13:04.429Z,211.72
2022-10-10T01:13:49.490Z,211.72
2022-10-10T01:14:34.553Z,212.25
2022-10-10T01:15:20.011Z,212.25
2022-10-10T01:16:04.764Z,212.73
2022-10-10T01:16:49.568Z,212.73
2022-10-10T01:17:34.673Z,212.25
2022-10-10T01:18:19.832Z,212.25
2022-10-10T01:19:04.840Z,212.73
2022-10-10T01:19:49.737Z,211.72
2022-10-10T01:20:34.697Z,212.73
2022-10-10T01:21:20.255Z,213.17
2022-10-10T01:22:05.225Z,213.17
2022-10-10T01:22:50.283Z,212.73
2022-10-10T01:23:35.126Z,212.25
2022-10-10T01:24:19.866Z,213.17
2022-10-10T01:25:04.731Z,213.17
2022-10-10T01:25:49.931Z,213.17
2022-10-10T01:26:35.348Z,213.17
2022-10-10T01:27:20.607Z,212.25
2022-10-10T01:28:05.530Z,213.17
2022-10-10T01:28:50.516Z,213.17
2022-10-10T01:29:35.333Z,213.17
2022-10-10T01:30:20.332Z,213.17
2022-10-10T01:31:05.387Z,213.17
2022-10-10T01:31:50.738Z,212.73
2022-10-10T01:32:35.728Z,212.25
2022-10-10T01:33:20.651Z,212.25
2022-10-10T01:34:05.614Z,212.25
2022-10-10T01:34:51.070Z,212.25
2022-10-10T01:35:36.020Z,212.25
2022-10-10T01:36:21.009Z,212.25
2022-10-10T01:37:06.039Z,212.25
2022-10-10T01:37:51.092Z,212.25
2022-10-10T01:38:36.049Z,212.25
2022-10-10T01:39:21.203Z,209.87
2022-10-10T01:40:06.261Z,212.25
2022-10-10T01:40:51.605Z,212.73
2022-10-10T01:41:36.402Z,210.54
2022-10-10T01:42:21.327Z,212.73
2022-10-10T01:43:06.386Z,212.73
2022-10-10T01:43:51.439Z,213.17
2022-10-10T01:44:36.602Z,213.17
2022-10-10T01:45:21.551Z,212.73
2022-10-10T01:46:06.518Z,212.73
2022-10-10T01:46:51.379Z,212.73
2022-10-10T01:47:36.868Z,212.73
2022-10-10T01:48:21.733Z,212.73
2022-10-10T01:49:06.734Z,212.73
2022-10-10T01:49:51.895Z,212.73
2022-10-10T01:50:36.636Z,213.17
2022-10-10T01:51:21.898Z,213.17
2022-10-10T01:52:06.956Z,213.17
2022-10-10T01:52:52.386Z,213.17
2022-10-10T01:53:37.067Z,212.25
2022-10-10T01:54:21.945Z,213.17
2022-10-10T01:55:07.310Z,211.72
2022-10-10T01:55:52.041Z,213.17
2022-10-10T01:56:37.011Z,213.17
2022-10-10T01:57:22.561Z,213.57
2022-10-10T01:58:07.435Z,213.94
2022-10-10T01:58:52.462Z,213.17
2022-10-10T01:59:37.483Z,214.58
2022-10-10T02:00:22.575Z,214.86
2022-10-10T02:01:07.592Z,214.86
2022-10-10T02:01:52.570Z,214.58
2022-10-10T02:02:37.950Z,214.58
2022-10-10T02:03:22.910Z,214.28
2022-10-10T02:04:07.580Z,214.28
2022-10-10T02:04:53.035Z,213.94
2022-10-10T02:05:37.990Z,213.94
2022-10-10T02:06:23.461Z,213.57
2022-10-10T02:07:07.887Z,213.57
2022-10-10T02:07:53.242Z,213.57
2022-10-10T02:08:38.502Z,214.58
2022-10-10T02:09:23.062Z,214.86
2022-10-10T02:10:08.624Z,214.86
2022-10-10T02:10:53.675Z,214.86
2022-10-10T02:11:38.390Z,214.58
2022-10-10T02:12:23.227Z,214.58
2022-10-10T02:13:08.650Z,214.28
2022-10-10T02:13:53.489Z,214.28
2022-10-10T02:14:38.339Z,213.94
2022-10-10T02:15:23.399Z,213.94
2022-10-10T02:16:08.559Z,213.57
2022-10-10T02:16:53.410Z,213.57
2022-10-10T02:17:38.569Z,213.57
2022-10-10T02:18:23.831Z,213.57
2022-10-10T02:19:08.528Z,213.17
2022-10-10T02:19:54.217Z,213.17
2022-10-10T02:20:38.796Z,213.17
2022-10-10T02:21:23.642Z,213.17
2022-10-10T02:22:08.827Z,213.17
2022-10-10T02:22:54.512Z,213.17
2022-10-10T02:23:38.931Z,212.73
2022-10-10T02:24:23.878Z,211.72
2022-10-10T02:25:09.148Z,212.73
2022-10-10T02:25:54.264Z,212.73
2022-10-10T02:26:39.567Z,212.73
2022-10-10T02:27:24.302Z,212.73
2022-10-10T02:28:09.409Z,212.73
2022-10-10T02:28:54.524Z,212.73
2022-10-10T02:29:39.588Z,210.54
2022-10-10T02:30:24.562Z,212.73
2022-10-10T02:31:09.584Z,212.73
2022-10-10T02:31:54.829Z,212.73
2022-10-10T02:32:39.291Z,212.73
2022-10-10T02:33:25.162Z,210.54
2022-10-10T02:34:10.113Z,212.25
2022-10-10T02:34:54.892Z,212.25
2022-10-10T02:35:40.071Z,212.25
2022-10-10T02:36:25.491Z,212.25
2022-10-10T02:37:10.037Z,210.54
2022-10-10T02:37:55.206Z,212.25
2022-10-10T02:38:39.943Z,212.25
2022-10-10T02:39:25.099Z,210.54
2022-10-10T02:40:10.055Z,212.25
2022-10-10T02:40:55.416Z,210.54
2022-10-10T02:41:40.699Z,212.25
2022-10-10T02:42:25.434Z,212.25
2022-10-10T02:43:10.385Z,212.25
2022-10-10T02:43:55.437Z,212.25
2022-10-10T02:44:40.498Z,212.25
2022-10-10T02:45:25.455Z,212.25
2022-10-10T02:46:10.510Z,212.25
2022-10-10T02:46:55.773Z,212.25
2022-10-10T02:47:40.824Z,212.25
2022-10-10T02:48:25.887Z,210.54
2022-10-10T02:49:11.243Z,212.25
2022-10-10T02:49:56.202Z,212.25
2022-10-10T02:50:40.829Z,212.25
2022-10-10T02:51:29.671Z,212.25
2022-10-10T02:52:11.163Z,212.25
2022-10-10T02:52:56.426Z,212.25
2022-10-10T02:53:41.079Z,212.73
2022-10-10T02:54:26.160Z,213.17
2022-10-10T02:55:11.391Z,213.57
2022-10-10T02:55:56.343Z,213.57
2022-10-10T02:56:41.135Z,213.57
2022-10-10T02:57:26.406Z,213.57
2022-10-10T02:58:11.315Z,213.57
2022-10-10T02:58:56.476Z,213.57
2022-10-10T02:59:41.445Z,213.57
2022-10-10T03:00:26.787Z,213.57
2022-10-10T03:01:11.884Z,213.17
2022-10-10T03:01:56.640Z,213.17
2022-10-10T03:02:41.355Z,213.17
2022-10-10T03:03:26.761Z,212.25
2022-10-10T03:04:11.755Z,213.17
2022-10-10T03:04:56.905Z,213.17
2022-10-10T03:05:41.768Z,213.17
2022-10-10T03:06:26.746Z,213.17
2022-10-10T03:07:12.669Z,213.17
2022-10-10T03:07:57.263Z,213.17
2022-10-10T03:08:42.625Z,213.17
2022-10-10T03:09:26.961Z,213.17
2022-10-10T03:10:12.229Z,213.17
2022-10-10T03:10:57.270Z,212.73
2022-10-10T03:11:42.114Z,212.73
2022-10-10T03:12:27.418Z,212.73
2022-10-10T03:13:12.644Z,212.73
2022-10-10T03:13:57.599Z,212.73
2022-10-10T03:14:42.761Z,212.73
2022-10-10T03:15:27.604Z,212.73
2022-10-10T03:16:12.670Z,212.73
2022-10-10T03:16:57.929Z,212.73
2022-10-10T03:17:42.878Z,212.73
2022-10-10T03:18:27.731Z,212.73
2022-10-10T03:19:12.744Z,212.73
2022-10-10T03:19:57.968Z,212.73
2022-10-10T03:20:42.822Z,212.25
2022-10-10T03:21:28.563Z,212.25
2022-10-10T03:22:13.109Z,212.25
2022-10-10T03:22:57.961Z,212.25
2022-10-10T03:23:43.122Z,212.25
2022-10-10T03:24:28.384Z,212.25
2022-10-10T03:25:13.628Z,210.54
2022-10-10T03:25:59.011Z,212.25
2022-10-10T03:26:43.656Z,212.25
2022-10-10T03:27:28.624Z,210.54
2022-10-10T03:28:13.550Z,212.73
2022-10-10T03:28:58.929Z,212.25
2022-10-10T03:29:43.680Z,212.25
2022-10-10T03:30:28.749Z,212.73
2022-10-10T03:31:14.200Z,212.25
2022-10-10T03:31:59.361Z,212.25
2022-10-10T03:32:43.900Z,212.25
2022-10-10T03:33:28.967Z,212.25
2022-10-10T03:34:14.224Z,212.25
2022-10-10T03:34:59.478Z,210.54
2022-10-10T03:35:44.132Z,212.25
2022-10-10T03:36:29.282Z,212.25
2022-10-10T03:37:14.341Z,212.25
2022-10-10T03:37:59.295Z,212.25
2022-10-10T03:38:44.249Z,212.25
2022-10-10T03:39:29.718Z,212.25
2022-10-10T03:40:14.668Z,212.25
2022-10-10T03:40:59.984Z,212.25
2022-10-10T03:41:44.615Z,212.25
2022-10-10T03:42:29.532Z,212.25
2022-10-10T03:43:14.916Z,212.25
2022-10-10T03:43:59.747Z,212.25
2022-10-10T03:44:44.908Z,212.25
2022-10-10T03:45:29.866Z,211.72
2022-10-10T03:46:16.473Z,209.87
2022-10-10T03:46:59.975Z,211.72
2022-10-10T03:47:44.825Z,212.25
2022-10-10T03:48:30.084Z,211.72
2022-10-10T03:49:15.051Z,211.72
2022-10-10T03:50:00.334Z,209.87
2022-10-10T03:50:45.398Z,211.72
2022-10-10T03:51:30.442Z,211.72
2022-10-10T03:52:15.365Z,211.72
2022-10-10T03:53:00.854Z,211.72
2022-10-10T03:53:45.374Z,211.72
2022-10-10T03:54:30.574Z,211.72
2022-10-10T03:55:15.499Z,211.72
2022-10-10T03:56:00.788Z,209.87
2022-10-10T03:56:45.609Z,211.72
2022-10-10T03:57:30.481Z,211.72
2022-10-10T03:58:18.001Z,212.25
2022-10-10T03:59:01.490Z,212.25
2022-10-10T03:59:45.829Z,212.25
2022-10-10T04:00:30.998Z,212.25
2022-10-10T04:01:15.928Z,212.25
2022-10-10T04:02:01.107Z,212.25
2022-10-10T04:02:45.846Z,211.72
2022-10-10T04:03:30.914Z,211.72
2022-10-10T04:04:15.976Z,212.25
2022-10-10T04:05:01.589Z,212.25
2022-10-10T04:05:45.953Z,211.72
2022-10-10T04:06:31.368Z,211.72
2022-10-10T04:07:16.294Z,209.87
2022-10-10T04:08:01.862Z,211.72
2022-10-10T04:08:46.672Z,211.72
2022-10-10T04:09:31.465Z,211.72
2022-10-10T04:10:16.487Z,211.72
2022-10-10T04:11:01.574Z,212.25
2022-10-10T04:11:46.532Z,212.25
2022-10-10T04:12:31.383Z,212.25
2022-10-10T04:13:17.058Z,212.25
2022-10-10T04:14:01.697Z,212.25
2022-10-10T04:14:46.548Z,212.25
2022-10-10T04:15:31.814Z,211.72
2022-10-10T04:16:16.764Z,211.72
2022-10-10T04:17:03.290Z,211.72
2022-10-10T04:17:47.388Z,211.72
2022-10-10T04:18:31.931Z,211.72
2022-10-10T04:19:16.896Z,211.72
2022-10-10T04:20:02.060Z,211.72
2022-10-10T04:20:47.317Z,211.72
2022-10-10T04:21:32.471Z,211.72
2022-10-10T04:22:17.320Z,211.72
2022-10-10T04:23:02.476Z,211.72
2022-10-10T04:23:47.438Z,211.72
2022-10-10T04:24:33.208Z,211.72
2022-10-10T04:25:17.548Z,211.72
2022-10-10T04:26:02.392Z,211.72
2022-10-10T04:26:47.876Z,211.72
2022-10-10T04:27:33.024Z,211.72
2022-10-10T04:28:17.695Z,211.72
2022-10-10T04:29:02.930Z,211.72
2022-10-10T04:29:47.778Z,211.72
2022-10-10T04:30:32.845Z,211.72
2022-10-10T04:31:18.104Z,209.87
2022-10-10T04:32:02.949Z,211.72
2022-10-10T04:32:47.970Z,211.72
2022-10-10T04:33:33.071Z,211.72
2022-10-10T04:34:18.088Z,211.72
2022-10-10T04:35:03.243Z,211.72
2022-10-10T04:35:48.337Z,212.73
2022-10-10T04:36:33.495Z,213.57
2022-10-10T04:37:18.454Z,213.94
2022-10-10T04:38:03.579Z,212.25
2022-10-10T04:38:48.461Z,213.17
2022-10-10T04:39:33.970Z,213.57
2022-10-10T04:40:19.767Z,212.25
2022-10-10T04:41:03.625Z,213.94
2022-10-10T04:41:48.689Z,212.73
2022-10-10T04:42:33.637Z,214.28
2022-10-10T04:43:18.800Z,214.28
2022-10-10T04:44:03.646Z,214.28
2022-10-10T04:44:48.847Z,213.94
2022-10-10T04:45:37.328Z,213.94
2022-10-10T04:46:19.223Z,212.73
2022-10-10T04:47:04.185Z,212.73
2022-10-10T04:47:49.648Z,212.73
2022-10-10T04:48:34.307Z,212.25
2022-10-10T04:49:19.148Z,212.25
2022-10-10T04:50:04.171Z,212.25
2022-10-10T04:50:49.467Z,210.54
2022-10-10T04:51:34.463Z,212.25
2022-10-10T04:52:19.470Z,212.25
2022-10-10T04:53:04.645Z,212.25
2022-10-10T04:53:50.553Z,212.25
2022-10-10T04:54:34.872Z,212.25
2022-10-10T04:55:19.728Z,212.25
2022-10-10T04:56:05.065Z,211.72
2022-10-10T04:56:49.817Z,212.25
2022-10-10T04:57:34.875Z,213.17
2022-10-10T04:58:20.115Z,213.17
2022-10-10T04:59:05.182Z,213.17
2022-10-10T04:59:49.914Z,211.72
2022-10-10T05:00:35.008Z,212.73
2022-10-10T05:01:20.267Z,212.73
2022-10-10T05:02:05.147Z,212.73
2022-10-10T05:02:50.658Z,212.25
2022-10-10T05:03:35.345Z,212.25
2022-10-10T05:04:20.389Z,212.25
2022-10-10T05:05:05.329Z,212.25
2022-10-10T05:05:50.496Z,212.25
2022-10-10T05:06:35.755Z,212.25
2022-10-10T05:07:20.709Z,212.25
2022-10-10T05:08:05.665Z,212.25
2022-10-10T05:08:50.619Z,210.54
2022-10-10T05:09:35.569Z,212.25
2022-10-10T05:10:20.721Z,212.25
2022-10-10T05:11:05.684Z,212.25
2022-10-10T05:11:50.943Z,210.54
2022-10-10T05:12:35.895Z,212.25
2022-10-10T05:13:20.962Z,212.25
2022-10-10T05:14:06.532Z,210.54
2022-10-10T05:14:51.383Z,212.25
2022-10-10T05:15:36.323Z,212.25
2022-10-10T05:16:21.286Z,212.25
2022-10-10T05:17:06.263Z,212.25
2022-10-10T05:17:51.289Z,212.25
2022-10-10T05:18:36.343Z,212.25
2022-10-10T05:19:21.296Z,212.25
2022-10-10T05:20:06.565Z,212.25
2022-10-10T05:20:51.205Z,212.25
2022-10-10T05:21:36.571Z,212.25
2022-10-10T05:22:21.836Z,212.25
2022-10-10T05:23:06.789Z,212.25
2022-10-10T05:23:51.619Z,212.25
2022-10-10T05:24:36.795Z,212.25
2022-10-10T05:25:21.794Z,210.54
2022-10-10T05:26:06.702Z,212.25
2022-10-10T05:26:51.865Z,210.54
2022-10-10T05:27:36.945Z,212.25
2022-10-10T05:28:21.905Z,212.25
2022-10-10T05:29:07.032Z,212.25
2022-10-10T05:29:51.986Z,212.25
2022-10-10T05:30:37.051Z,212.25
2022-10-10T05:31:22.003Z,212.25
2022-10-10T05:32:10.302Z,212.25
2022-10-10T05:32:52.639Z,212.25
2022-10-10T05:33:37.346Z,212.25
2022-10-10T05:34:22.227Z,212.25
2022-10-10T05:35:07.030Z,212.25
2022-10-10T05:35:52.615Z,212.25
2022-10-10T05:36:37.602Z,212.25
2022-10-10T05:37:22.656Z,212.25
2022-10-10T05:38:07.310Z,212.25
2022-10-10T05:38:52.678Z,212.25
2022-10-10T05:39:37.941Z,209.87
2022-10-10T05:40:22.983Z,212.25
2022-10-10T05:41:07.837Z,209.87
2022-10-10T05:41:53.143Z,212.25
2022-10-10T05:42:37.944Z,212.25
2022-10-10T05:43:23.213Z,212.25
2022-10-10T05:44:07.858Z,212.25
2022-10-10T05:44:53.227Z,212.25
2022-10-10T05:45:38.380Z,212.25
2022-10-10T05:46:23.392Z,212.25
2022-10-10T05:47:08.544Z,212.25
2022-10-10T05:47:53.390Z,212.25
2022-10-10T05:48:38.491Z,212.25
2022-10-10T05:49:23.162Z,212.25
2022-10-10T05:50:08.623Z,210.54
2022-10-10T05:50:53.771Z,212.25
2022-10-10T05:51:38.757Z,212.25
2022-10-10T05:52:23.599Z,212.25
2022-10-10T05:53:08.841Z,212.25
2022-10-10T05:53:54.066Z,212.25
2022-10-10T05:54:38.850Z,212.25
2022-10-10T05:55:24.267Z,210.54
2022-10-10T05:56:08.962Z,212.25
2022-10-10T05:56:54.637Z,212.25
2022-10-10T05:57:39.377Z,210.54
2022-10-10T05:58:24.237Z,212.25
2022-10-10T05:59:09.291Z,212.25
2022-10-10T05:59:54.363Z,210.54
2022-10-10T06:00:39.308Z,212.25
2022-10-10T06:01:24.357Z,209.87
2022-10-10T06:02:09.557Z,212.25
2022-10-10T06:02:55.329Z,212.25
2022-10-10T06:03:39.277Z,212.25
2022-10-10T06:04:24.477Z,212.25
2022-10-10T06:05:09.636Z,212.25
2022-10-10T06:05:54.708Z,212.25
2022-10-10T06:06:39.650Z,212.25
2022-10-10T06:07:29.291Z,212.25
2022-10-10T06:08:11.805Z,212.25
2022-10-10T06:08:55.246Z,212.25
2022-10-10T06:09:39.979Z,212.25
2022-10-10T06:10:24.982Z,209.87
2022-10-10T06:11:10.402Z,212.25
2022-10-10T06:11:55.569Z,212.25
2022-10-10T06:12:40.316Z,211.72
2022-10-10T06:13:25.090Z,211.72
2022-10-10T06:14:10.230Z,211.72
2022-10-10T06:14:55.549Z,211.72
2022-10-10T06:15:40.324Z,211.72
2022-10-10T06:16:25.832Z,211.72
2022-10-10T06:17:10.544Z,211.72
2022-10-10T06:17:55.598Z,211.72
2022-10-10T06:18:40.559Z,211.72
2022-10-10T06:19:25.610Z,211.72
2022-10-10T06:20:10.806Z,209.87
2022-10-10T06:20:55.928Z,211.72
2022-10-10T06:21:40.880Z,211.72
2022-10-10T06:22:26.330Z,211.72
2022-10-10T06:23:11.100Z,211.72
2022-10-10T06:23:56.190Z,211.72
2022-10-10T06:24:40.974Z,211.72
2022-10-10T06:25:39.310Z,211.72
2022-10-10T06:26:10.991Z,211.72
2022-10-10T06:26:56.486Z,211.72
2022-10-10T06:27:41.295Z,209.87
2022-10-10T06:28:26.358Z,211.72
2022-10-10T06:29:11.369Z,211.72
2022-10-10T06:29:56.473Z,211.72
2022-10-10T06:30:41.356Z,212.25
2022-10-10T06:31:26.715Z,212.25
2022-10-10T06:32:11.666Z,212.25
2022-10-10T06:32:57.223Z,212.25
2022-10-10T06:33:41.706Z,212.25
2022-10-10T06:34:26.945Z,212.25
2022-10-10T06:35:11.900Z,209.87
2022-10-10T06:35:57.055Z,212.25
2022-10-10T06:36:41.907Z,212.25
2022-10-10T06:37:27.062Z,212.25
2022-10-10T06:38:12.226Z,212.25
2022-10-10T06:38:57.389Z,212.25
2022-10-10T06:39:42.043Z,212.25
2022-10-10T06:40:27.231Z,212.25
2022-10-10T06:41:12.041Z,212.25
2022-10-10T06:41:57.387Z,212.25
2022-10-10T06:42:42.243Z,210.54
2022-10-10T06:43:27.248Z,212.25
2022-10-10T06:44:12.673Z,210.54
2022-10-10T06:44:57.338Z,212.25
2022-10-10T06:45:42.377Z,212.25
2022-10-10T06:46:27.844Z,212.25
2022-10-10T06:47:12.573Z,212.25
2022-10-10T06:47:57.955Z,212.25
2022-10-10T06:48:42.708Z,212.25
2022-10-10T06:49:27.760Z,212.25
2022-10-10T06:50:12.984Z,212.25
2022-10-10T06:50:57.915Z,212.25
2022-10-10T06:51:43.200Z,212.25
2022-10-10T06:52:28.092Z,212.25
2022-10-10T06:53:13.009Z,212.25
2022-10-10T06:53:58.249Z,212.25
2022-10-10T06:54:43.066Z,212.25
2022-10-10T06:55:27.980Z,212.25
2022-10-10T06:56:13.268Z,212.25
2022-10-10T06:56:58.266Z,212.25
2022-10-10T06:57:43.280Z,212.25
2022-10-10T06:58:28.238Z,212.25
2022-10-10T06:59:13.493Z,212.73
2022-10-10T06:59:58.656Z,212.73
2022-10-10T07:00:43.626Z,212.73
2022-10-10T07:01:28.704Z,212.73
2022-10-10T07:02:13.736Z,212.73
2022-10-10T07:02:58.980Z,212.73
2022-10-10T07:03:43.530Z,212.25
2022-10-10T07:04:28.767Z,210.54
2022-10-10T07:05:13.954Z,212.25
2022-10-10T07:05:59.277Z,210.54
2022-10-10T07:06:43.958Z,212.25
2022-10-10T07:07:28.810Z,212.25
2022-10-10T07:08:13.966Z,212.25
2022-10-10T07:08:59.436Z,212.25
2022-10-10T07:09:44.000Z,210.54
2022-10-10T07:10:29.145Z,212.25
2022-10-10T07:11:14.208Z,212.25
2022-10-10T07:11:59.354Z,212.25
2022-10-10T07:12:45.185Z,212.25
2022-10-10T07:13:29.492Z,212.25
2022-10-10T07:14:14.838Z,212.25
2022-10-10T07:14:59.579Z,212.25
2022-10-10T07:15:44.840Z,212.25
2022-10-10T07:16:29.995Z,212.25
2022-10-10T07:17:14.957Z,210.54
2022-10-10T07:17:59.821Z,212.25
2022-10-10T07:18:44.864Z,212.25
2022-10-10T07:19:29.688Z,212.25
2022-10-10T07:20:14.799Z,212.25
2022-10-10T07:21:00.522Z,212.25
2022-10-10T07:21:44.973Z,212.25
2022-10-10T07:22:30.971Z,212.25
2022-10-10T07:23:15.103Z,212.25
2022-10-10T07:24:00.880Z,212.25
2022-10-10T07:24:45.443Z,212.25
2022-10-10T07:25:30.379Z,212.25
2022-10-10T07:26:15.373Z,212.25
2022-10-10T07:27:06.265Z,212.25
2022-10-10T07:27:45.400Z,212.25
2022-10-10T07:28:30.955Z,212.25
2022-10-10T07:29:15.755Z,211.72
2022-10-10T07:30:01.285Z,211.72
2022-10-10T07:30:45.630Z,211.72
2022-10-10T07:31:31.129Z,211.72
2022-10-10T07:32:15.887Z,211.72
2022-10-10T07:33:01.455Z,211.72
2022-10-10T07:33:49.954Z,211.72
2022-10-10T07:34:31.063Z,212.25
2022-10-10T07:35:16.216Z,212.25
2022-10-10T07:36:01.495Z,212.25
2022-10-10T07:36:45.995Z,212.25
2022-10-10T07:37:30.964Z,212.25
2022-10-10T07:38:16.352Z,210.54
2022-10-10T07:39:01.636Z,212.25
2022-10-10T07:39:46.384Z,212.25
2022-10-10T07:40:31.636Z,211.72
2022-10-10T07:41:16.551Z,211.72
2022-10-10T07:42:01.752Z,211.72
2022-10-10T07:42:46.665Z,211.72
2022-10-10T07:43:31.524Z,211.72
2022-10-10T07:44:16.582Z,211.72
2022-10-10T07:45:01.750Z,211.72
2022-10-10T07:45:46.717Z,211.72
2022-10-10T07:46:31.829Z,211.72
2022-10-10T07:47:17.106Z,211.72
2022-10-10T07:48:01.859Z,211.72
2022-10-10T07:48:47.127Z,211.72
2022-10-10T07:49:32.365Z,209.87
2022-10-10T07:50:17.146Z,211.72
2022-10-10T07:51:02.186Z,211.72
2022-10-10T07:51:47.150Z,209.87
2022-10-10T07:52:32.338Z,211.72
2022-10-10T07:53:17.487Z,209.87
2022-10-10T07:54:02.471Z,211.72
2022-10-10T07:54:47.381Z,211.72
2022-10-10T07:55:32.652Z,211.72
2022-10-10T07:56:17.958Z,211.72
2022-10-10T07:57:03.145Z,211.72
2022-10-10T07:57:49.918Z,211.72
2022-10-10T07:58:32.665Z,211.72
2022-10-10T07:59:17.938Z,211.72
2022-10-10T08:00:02.889Z,211.72
2022-10-10T08:00:47.922Z,211.72
2022-10-10T08:01:32.528Z,211.72
2022-10-10T08:02:17.970Z,211.72
2022-10-10T08:03:02.986Z,209.87
2022-10-10T08:03:47.842Z,211.72
2022-10-10T08:04:33.123Z,211.72
2022-10-10T08:05:18.476Z,211.72
2022-10-10T08:06:03.114Z,211.72
2022-10-10T08:06:48.060Z,211.72
2022-10-10T08:07:33.164Z,211.72
2022-10-10T08:08:18.074Z,211.72
2022-10-10T08:09:03.128Z,211.72
2022-10-10T08:09:48.425Z,211.72
2022-10-10T08:10:34.176Z,211.72
2022-10-10T08:11:18.512Z,211.72
2022-10-10T08:12:03.454Z,211.72
2022-10-10T08:12:48.338Z,209.15
2022-10-10T08:13:34.493Z,211.72
2022-10-10T08:14:18.853Z,211.72
2022-10-10T08:15:03.367Z,211.72
2022-10-10T08:15:48.540Z,211.72
2022-10-10T08:16:33.592Z,211.72
2022-10-10T08:17:18.772Z,211.72
2022-10-10T08:18:03.577Z,211.72
2022-10-10T08:18:49.308Z,211.72
2022-10-10T08:19:33.938Z,211.72
2022-10-10T08:20:18.991Z,211.72
2022-10-10T08:21:03.930Z,211.72
2022-10-10T08:21:48.944Z,211.72
2022-10-10T08:22:34.255Z,211.72
2022-10-10T08:23:20.591Z,211.72
2022-10-10T08:24:04.263Z,211.72
2022-10-10T08:24:49.456Z,211.72
2022-10-10T08:25:34.989Z,211.72
2022-10-10T08:26:19.702Z,209.15
2022-10-10T08:27:04.614Z,211.72
2022-10-10T08:27:49.476Z,211.72
2022-10-10T08:28:34.790Z,211.72
2022-10-10T08:29:19.962Z,211.72
2022-10-10T08:30:04.722Z,209.15
2022-10-10T08:30:49.786Z,211.72
2022-10-10T08:31:34.861Z,211.72
2022-10-10T08:32:19.882Z,211.72
2022-10-10T08:33:04.946Z,211.72
2022-10-10T08:33:50.505Z,211.72
2022-10-10T08:34:35.151Z,211.72
2022-10-10T08:35:19.744Z,211.72
2022-10-10T08:36:05.056Z,211.72
2022-10-10T08:36:50.829Z,211.72
2022-10-10T08:37:37.321Z,209.15
2022-10-10T08:38:20.227Z,211.72
2022-10-10T08:39:05.294Z,211.72
2022-10-10T08:39:50.617Z,210.54
2022-10-10T08:40:35.195Z,211.72
2022-10-10T08:41:20.983Z,211.72
2022-10-10T08:42:05.733Z,211.72
2022-10-10T08:42:52.844Z,211.72
2022-10-10T08:43:35.931Z,210.54
2022-10-10T08:44:20.496Z,210.54
2022-10-10T08:45:06.042Z,210.54
2022-10-10T08:45:50.756Z,210.54
2022-10-10T08:46:35.668Z,210.54
2022-10-10T08:47:20.801Z,210.54
2022-10-10T08:48:05.959Z,210.54
2022-10-10T08:48:51.554Z,210.54
2022-10-10T08:49:36.074Z,210.54
2022-10-10T08:50:21.097Z,210.54
2022-10-10T08:51:06.041Z,210.54
2022-10-10T08:51:51.242Z,210.54
2022-10-10T08:52:35.994Z,210.54
2022-10-10T08:53:21.191Z,210.54
2022-10-10T08:54:06.475Z,210.54
2022-10-10T08:54:53.776Z,209.15
2022-10-10T08:55:36.631Z,210.54
2022-10-10T08:56:21.275Z,210.54
2022-10-10T08:57:06.846Z,210.54
2022-10-10T08:57:51.591Z,210.54
2022-10-10T08:58:36.595Z,210.54
2022-10-10T08:59:21.811Z,210.54
2022-10-10T09:00:06.588Z,210.54
2022-10-10T09:00:52.055Z,210.54
2022-10-10T09:01:37.011Z,210.54
2022-10-10T09:02:23.646Z,209.87
2022-10-10T09:03:06.886Z,209.87
2022-10-10T09:03:52.145Z,209.87
2022-10-10T09:04:36.967Z,209.87
2022-10-10T09:05:22.050Z,209.87
2022-10-10T09:06:07.520Z,209.87
2022-10-10T09:06:52.457Z,209.87
2022-10-10T09:07:37.425Z,209.15
2022-10-10T09:08:26.330Z,209.87
2022-10-10T09:09:07.694Z,209.15
2022-10-10T09:09:52.697Z,209.15
2022-10-10T09:10:37.650Z,209.15
2022-10-10T09:11:22.502Z,209.15
2022-10-10T09:12:07.309Z,209.15
2022-10-10T09:12:53.521Z,209.15
2022-10-10T09:13:37.839Z,209.15
2022-10-10T09:14:22.647Z,209.15
2022-10-10T09:15:07.580Z,209.15
2022-10-10T09:15:52.943Z,209.15
2022-10-10T09:16:38.003Z,209.15
2022-10-10T09:17:23.010Z,209.15
2022-10-10T09:18:07.927Z,209.15
2022-10-10T09:18:53.579Z,209.15
2022-10-10T09:19:38.276Z,209.15
2022-10-10T09:20:23.382Z,209.15
2022-10-10T09:21:08.547Z,209.15
2022-10-10T09:21:53.559Z,209.15